sensor_id;sensor_type;location;lat;lon;timestamp;P1;durP1;ratioP1;P2;durP2;ratioP2
54539;SDS011;40438;52.992;18.604;2022-08-04T00:00:25;8.70;;;7.78;;
54539;SDS011;40438;52.992;18.604;2022-08-04T00:02:56;12.98;;;8.23;;
54539;SDS011;40438;52.992;18.604;2022-08-04T00:05:29;12.57;;;8.07;;
54539;SDS011;40438;52.992;18.604;2022-08-04T00:08:03;10.70;;;7.88;;
54539;SDS011;40438;52.992;18.604;2022-08-04T00:10:35;13.18;;;8.30;;
54539;SDS011;40438;52.992;18.604;2022-08-04T00:13:05;12.20;;;9.57;;
54539;SDS011;40438;52.992;18.604;2022-08-04T00:15:32;12.10;;;8.88;;
54539;SDS011;40438;52.992;18.604;2022-08-04T00:18:00;12.90;;;9.18;;
54539;SDS011;40438;52.992;18.604;2022-08-04T00:20:29;16.48;;;8.48;;
54539;SDS011;40438;52.992;18.604;2022-08-04T00:22:56;12.07;;;8.88;;
54539;SDS011;40438;52.992;18.604;2022-08-04T00:25:24;10.63;;;8.65;;
54539;SDS011;40438;52.992;18.604;2022-08-04T00:27:50;13.25;;;9.40;;
54539;SDS011;40438;52.992;18.604;2022-08-04T00:30:17;13.07;;;8.38;;
54539;SDS011;40438;52.992;18.604;2022-08-04T00:32:43;11.80;;;8.73;;
54539;SDS011;40438;52.992;18.604;2022-08-04T00:35:11;13.98;;;8.38;;
54539;SDS011;40438;52.992;18.604;2022-08-04T00:37:38;13.55;;;9.27;;
54539;SDS011;40438;52.992;18.604;2022-08-04T00:40:08;11.98;;;8.90;;
54539;SDS011;40438;52.992;18.604;2022-08-04T00:42:46;11.40;;;8.90;;
54539;SDS011;40438;52.992;18.604;2022-08-04T00:45:31;14.30;;;9.10;;
54539;SDS011;40438;52.992;18.604;2022-08-04T00:48:20;16.38;;;9.68;;
54539;SDS011;40438;52.992;18.604;2022-08-04T00:50:59;13.60;;;9.32;;
54539;SDS011;40438;52.992;18.604;2022-08-04T00:53:36;10.88;;;9.27;;
54539;SDS011;40438;52.992;18.604;2022-08-04T00:56:21;14.00;;;9.18;;
54539;SDS011;40438;52.992;18.604;2022-08-04T00:59:13;11.30;;;8.38;;
54539;SDS011;40438;52.992;18.604;2022-08-04T01:01:54;10.02;;;8.73;;
54539;SDS011;40438;52.992;18.604;2022-08-04T01:04:27;13.80;;;9.43;;
54539;SDS011;40438;52.992;18.604;2022-08-04T01:07:09;11.65;;;9.00;;
54539;SDS011;40438;52.992;18.604;2022-08-04T01:09:51;11.93;;;9.55;;
54539;SDS011;40438;52.992;18.604;2022-08-04T01:12:31;13.73;;;9.80;;
54539;SDS011;40438;52.992;18.604;2022-08-04T01:15:12;13.32;;;10.52;;
54539;SDS011;40438;52.992;18.604;2022-08-04T01:17:46;13.48;;;9.48;;
54539;SDS011;40438;52.992;18.604;2022-08-04T01:20:23;18.45;;;10.60;;
54539;SDS011;40438;52.992;18.604;2022-08-04T01:23:15;17.65;;;10.48;;
54539;SDS011;40438;52.992;18.604;2022-08-04T01:26:15;16.92;;;10.07;;
54539;SDS011;40438;52.992;18.604;2022-08-04T01:29:06;11.65;;;10.02;;
54539;SDS011;40438;52.992;18.604;2022-08-04T01:31:33;11.55;;;9.43;;
54539;SDS011;40438;52.992;18.604;2022-08-04T01:34:09;16.25;;;9.93;;
54539;SDS011;40438;52.992;18.604;2022-08-04T01:36:37;14.40;;;10.35;;
54539;SDS011;40438;52.992;18.604;2022-08-04T01:41:35;13.65;;;10.68;;
54539;SDS011;40438;52.992;18.604;2022-08-04T01:44:01;13.95;;;9.70;;
54539;SDS011;40438;52.992;18.604;2022-08-04T01:46:30;13.93;;;10.10;;
54539;SDS011;40438;52.992;18.604;2022-08-04T01:48:59;13.52;;;10.35;;
54539;SDS011;40438;52.992;18.604;2022-08-04T01:51:26;18.33;;;10.55;;
54539;SDS011;40438;52.992;18.604;2022-08-04T01:53:53;15.52;;;11.23;;
54539;SDS011;40438;52.992;18.604;2022-08-04T01:56:18;17.55;;;10.52;;
54539;SDS011;40438;52.992;18.604;2022-08-04T01:58:46;15.00;;;10.88;;
54539;SDS011;40438;52.992;18.604;2022-08-04T02:01:12;15.32;;;10.65;;
54539;SDS011;40438;52.992;18.604;2022-08-04T02:03:40;12.73;;;10.15;;
54539;SDS011;40438;52.992;18.604;2022-08-04T02:06:10;12.63;;;10.18;;
54539;SDS011;40438;52.992;18.604;2022-08-04T02:08:49;14.55;;;10.50;;
54539;SDS011;40438;52.992;18.604;2022-08-04T02:11:21;12.25;;;10.02;;
54539;SDS011;40438;52.992;18.604;2022-08-04T02:13:51;16.95;;;10.82;;
54539;SDS011;40438;52.992;18.604;2022-08-04T02:16:23;13.77;;;11.18;;
54539;SDS011;40438;52.992;18.604;2022-08-04T02:19:00;14.70;;;10.98;;
54539;SDS011;40438;52.992;18.604;2022-08-04T02:21:29;13.52;;;11.27;;
54539;SDS011;40438;52.992;18.604;2022-08-04T02:23:57;14.48;;;11.40;;
54539;SDS011;40438;52.992;18.604;2022-08-04T02:26:27;14.07;;;10.65;;
54539;SDS011;40438;52.992;18.604;2022-08-04T02:29:03;17.42;;;11.00;;
54539;SDS011;40438;52.992;18.604;2022-08-04T02:31:37;15.18;;;11.05;;
54539;SDS011;40438;52.992;18.604;2022-08-04T02:34:11;17.67;;;11.30;;
54539;SDS011;40438;52.992;18.604;2022-08-04T02:36:46;14.20;;;10.80;;
54539;SDS011;40438;52.992;18.604;2022-08-04T02:39:16;15.85;;;11.70;;
54539;SDS011;40438;52.992;18.604;2022-08-04T02:41:44;13.90;;;11.38;;
54539;SDS011;40438;52.992;18.604;2022-08-04T02:44:11;13.95;;;11.48;;
54539;SDS011;40438;52.992;18.604;2022-08-04T02:46:38;17.85;;;11.98;;
54539;SDS011;40438;52.992;18.604;2022-08-04T02:49:06;17.40;;;11.70;;
54539;SDS011;40438;52.992;18.604;2022-08-04T02:51:35;13.90;;;11.25;;
54539;SDS011;40438;52.992;18.604;2022-08-04T02:54:02;14.40;;;11.43;;
54539;SDS011;40438;52.992;18.604;2022-08-04T02:56:30;14.57;;;11.63;;
54539;SDS011;40438;52.992;18.604;2022-08-04T02:58:58;15.48;;;11.13;;
54539;SDS011;40438;52.992;18.604;2022-08-04T03:01:25;15.48;;;11.25;;
54539;SDS011;40438;52.992;18.604;2022-08-04T03:03:52;15.43;;;12.05;;
54539;SDS011;40438;52.992;18.604;2022-08-04T03:13:00;15.40;;;11.45;;
54539;SDS011;40438;52.992;18.604;2022-08-04T03:15:57;16.20;;;12.38;;
54539;SDS011;40438;52.992;18.604;2022-08-04T03:24:38;14.82;;;12.07;;
54539;SDS011;40438;52.992;18.604;2022-08-04T03:27:36;17.85;;;12.70;;
54539;SDS011;40438;52.992;18.604;2022-08-04T03:30:32;20.40;;;12.88;;
54539;SDS011;40438;52.992;18.604;2022-08-04T03:33:19;20.45;;;12.80;;
54539;SDS011;40438;52.992;18.604;2022-08-04T03:42:27;16.58;;;12.77;;
54539;SDS011;40438;52.992;18.604;2022-08-04T03:45:22;17.45;;;12.52;;
54539;SDS011;40438;52.992;18.604;2022-08-04T03:48:23;17.45;;;12.65;;
54539;SDS011;40438;52.992;18.604;2022-08-04T03:51:11;18.00;;;13.15;;
54539;SDS011;40438;52.992;18.604;2022-08-04T03:53:51;17.08;;;12.85;;
54539;SDS011;40438;52.992;18.604;2022-08-04T03:56:43;17.85;;;12.70;;
54539;SDS011;40438;52.992;18.604;2022-08-04T04:08:57;21.00;;;13.82;;
54539;SDS011;40438;52.992;18.604;2022-08-04T04:17:13;20.33;;;13.52;;
54539;SDS011;40438;52.992;18.604;2022-08-04T04:19:59;21.25;;;13.88;;
54539;SDS011;40438;52.992;18.604;2022-08-04T04:22:56;21.30;;;14.65;;
54539;SDS011;40438;52.992;18.604;2022-08-04T04:25:34;20.42;;;14.85;;
54539;SDS011;40438;52.992;18.604;2022-08-04T04:31:29;19.93;;;14.47;;
54539;SDS011;40438;52.992;18.604;2022-08-04T04:34:05;17.90;;;13.73;;
54539;SDS011;40438;52.992;18.604;2022-08-04T04:36:42;19.90;;;14.32;;
54539;SDS011;40438;52.992;18.604;2022-08-04T04:39:19;20.55;;;14.77;;
54539;SDS011;40438;52.992;18.604;2022-08-04T04:41:58;21.42;;;15.82;;
54539;SDS011;40438;52.992;18.604;2022-08-04T04:47:46;19.73;;;14.40;;
54539;SDS011;40438;52.992;18.604;2022-08-04T04:50:19;22.02;;;14.80;;
54539;SDS011;40438;52.992;18.604;2022-08-04T04:52:53;18.92;;;14.07;;
54539;SDS011;40438;52.992;18.604;2022-08-04T04:55:28;19.25;;;13.98;;
54539;SDS011;40438;52.992;18.604;2022-08-04T04:57:58;19.88;;;14.77;;
54539;SDS011;40438;52.992;18.604;2022-08-04T05:00:29;21.02;;;14.98;;
54539;SDS011;40438;52.992;18.604;2022-08-04T05:03:13;18.10;;;14.07;;
54539;SDS011;40438;52.992;18.604;2022-08-04T05:08:50;20.33;;;14.55;;
54539;SDS011;40438;52.992;18.604;2022-08-04T05:11:39;20.65;;;14.73;;
54539;SDS011;40438;52.992;18.604;2022-08-04T05:14:26;17.88;;;14.00;;
54539;SDS011;40438;52.992;18.604;2022-08-04T05:16:57;18.20;;;14.10;;
54539;SDS011;40438;52.992;18.604;2022-08-04T05:19:32;19.88;;;15.20;;
54539;SDS011;40438;52.992;18.604;2022-08-04T05:22:07;21.05;;;14.85;;
54539;SDS011;40438;52.992;18.604;2022-08-04T05:24:37;18.50;;;13.82;;
54539;SDS011;40438;52.992;18.604;2022-08-04T05:27:07;19.77;;;14.00;;
54539;SDS011;40438;52.992;18.604;2022-08-04T05:32:10;18.33;;;13.93;;
54539;SDS011;40438;52.992;18.604;2022-08-04T05:34:41;18.90;;;14.90;;
54539;SDS011;40438;52.992;18.604;2022-08-04T05:37:14;21.85;;;14.25;;
54539;SDS011;40438;52.992;18.604;2022-08-04T05:39:41;18.90;;;14.68;;
54539;SDS011;40438;52.992;18.604;2022-08-04T05:42:10;18.30;;;13.75;;
54539;SDS011;40438;52.992;18.604;2022-08-04T05:44:37;20.77;;;14.50;;
54539;SDS011;40438;52.992;18.604;2022-08-04T05:47:04;20.00;;;13.68;;
54539;SDS011;40438;52.992;18.604;2022-08-04T05:49:31;18.73;;;14.02;;
54539;SDS011;40438;52.992;18.604;2022-08-04T05:52:00;15.40;;;12.48;;
54539;SDS011;40438;52.992;18.604;2022-08-04T05:54:28;18.33;;;13.70;;
54539;SDS011;40438;52.992;18.604;2022-08-04T05:56:56;18.52;;;13.15;;
54539;SDS011;40438;52.992;18.604;2022-08-04T05:59:23;19.77;;;13.60;;
54539;SDS011;40438;52.992;18.604;2022-08-04T06:01:49;16.75;;;13.00;;
54539;SDS011;40438;52.992;18.604;2022-08-04T06:04:17;20.50;;;13.00;;
54539;SDS011;40438;52.992;18.604;2022-08-04T06:06:45;18.33;;;13.63;;
54539;SDS011;40438;52.992;18.604;2022-08-04T06:09:13;17.45;;;12.32;;
54539;SDS011;40438;52.992;18.604;2022-08-04T06:11:39;13.88;;;12.00;;
54539;SDS011;40438;52.992;18.604;2022-08-04T06:14:07;14.73;;;12.25;;
54539;SDS011;40438;52.992;18.604;2022-08-04T06:16:37;15.15;;;12.45;;
54539;SDS011;40438;52.992;18.604;2022-08-04T06:19:06;13.98;;;12.30;;
54539;SDS011;40438;52.992;18.604;2022-08-04T06:21:33;15.98;;;11.60;;
54539;SDS011;40438;52.992;18.604;2022-08-04T06:24:02;14.93;;;11.88;;
54539;SDS011;40438;52.992;18.604;2022-08-04T06:26:34;15.35;;;12.85;;
54539;SDS011;40438;52.992;18.604;2022-08-04T06:29:01;17.48;;;12.65;;
54539;SDS011;40438;52.992;18.604;2022-08-04T06:31:28;18.45;;;12.43;;
54539;SDS011;40438;52.992;18.604;2022-08-04T06:33:57;16.60;;;12.40;;
54539;SDS011;40438;52.992;18.604;2022-08-04T06:36:25;14.15;;;12.57;;
54539;SDS011;40438;52.992;18.604;2022-08-04T06:38:51;14.68;;;11.98;;
54539;SDS011;40438;52.992;18.604;2022-08-04T06:41:18;14.88;;;11.40;;
54539;SDS011;40438;52.992;18.604;2022-08-04T06:43:47;14.98;;;11.50;;
54539;SDS011;40438;52.992;18.604;2022-08-04T06:46:13;14.93;;;11.50;;
54539;SDS011;40438;52.992;18.604;2022-08-04T06:48:40;15.48;;;11.93;;
54539;SDS011;40438;52.992;18.604;2022-08-04T06:51:06;15.32;;;11.55;;
54539;SDS011;40438;52.992;18.604;2022-08-04T06:53:34;13.85;;;11.63;;
54539;SDS011;40438;52.992;18.604;2022-08-04T06:56:00;16.08;;;12.25;;
54539;SDS011;40438;52.992;18.604;2022-08-04T06:58:26;16.15;;;11.30;;
54539;SDS011;40438;52.992;18.604;2022-08-04T07:00:58;15.27;;;12.05;;
54539;SDS011;40438;52.992;18.604;2022-08-04T07:03:25;12.32;;;11.02;;
54539;SDS011;40438;52.992;18.604;2022-08-04T07:05:51;16.27;;;11.23;;
54539;SDS011;40438;52.992;18.604;2022-08-04T07:08:17;17.02;;;11.50;;
54539;SDS011;40438;52.992;18.604;2022-08-04T07:10:43;13.50;;;12.00;;
54539;SDS011;40438;52.992;18.604;2022-08-04T07:13:10;12.38;;;11.07;;
54539;SDS011;40438;52.992;18.604;2022-08-04T07:15:36;14.63;;;11.50;;
54539;SDS011;40438;52.992;18.604;2022-08-04T07:18:06;14.60;;;11.23;;
54539;SDS011;40438;52.992;18.604;2022-08-04T07:20:32;14.35;;;11.32;;
54539;SDS011;40438;52.992;18.604;2022-08-04T07:22:58;12.52;;;11.23;;
54539;SDS011;40438;52.992;18.604;2022-08-04T07:25:24;14.15;;;11.55;;
54539;SDS011;40438;52.992;18.604;2022-08-04T07:27:50;13.55;;;11.50;;
54539;SDS011;40438;52.992;18.604;2022-08-04T07:30:16;13.43;;;11.23;;
54539;SDS011;40438;52.992;18.604;2022-08-04T07:32:43;16.80;;;11.48;;
54539;SDS011;40438;52.992;18.604;2022-08-04T07:35:10;14.65;;;11.48;;
54539;SDS011;40438;52.992;18.604;2022-08-04T07:37:37;10.65;;;9.45;;
54539;SDS011;40438;52.992;18.604;2022-08-04T07:40:03;22.30;;;10.90;;
54539;SDS011;40438;52.992;18.604;2022-08-04T07:42:30;17.02;;;10.57;;
54539;SDS011;40438;52.992;18.604;2022-08-04T07:44:56;11.80;;;10.13;;
54539;SDS011;40438;52.992;18.604;2022-08-04T07:47:22;13.73;;;10.45;;
54539;SDS011;40438;52.992;18.604;2022-08-04T07:49:48;11.95;;;10.75;;
54539;SDS011;40438;52.992;18.604;2022-08-04T07:52:15;12.93;;;10.55;;
54539;SDS011;40438;52.992;18.604;2022-08-04T07:54:41;12.32;;;10.30;;
54539;SDS011;40438;52.992;18.604;2022-08-04T07:57:08;12.50;;;9.75;;
54539;SDS011;40438;52.992;18.604;2022-08-04T07:59:34;11.73;;;9.73;;
54539;SDS011;40438;52.992;18.604;2022-08-04T08:02:00;15.98;;;9.98;;
54539;SDS011;40438;52.992;18.604;2022-08-04T08:04:26;10.50;;;9.20;;
54539;SDS011;40438;52.992;18.604;2022-08-04T08:06:53;12.95;;;10.63;;
54539;SDS011;40438;52.992;18.604;2022-08-04T08:09:22;14.63;;;11.32;;
54539;SDS011;40438;52.992;18.604;2022-08-04T08:11:48;11.15;;;9.52;;
54539;SDS011;40438;52.992;18.604;2022-08-04T08:14:15;14.77;;;10.50;;
54539;SDS011;40438;52.992;18.604;2022-08-04T08:16:41;12.98;;;10.82;;
54539;SDS011;40438;52.992;18.604;2022-08-04T08:19:07;12.82;;;9.73;;
54539;SDS011;40438;52.992;18.604;2022-08-04T08:21:33;11.73;;;10.52;;
54539;SDS011;40438;52.992;18.604;2022-08-04T08:23:59;12.82;;;9.48;;
54539;SDS011;40438;52.992;18.604;2022-08-04T08:26:27;11.68;;;9.18;;
54539;SDS011;40438;52.992;18.604;2022-08-04T08:28:53;10.05;;;8.85;;
54539;SDS011;40438;52.992;18.604;2022-08-04T08:31:18;12.10;;;10.25;;
54539;SDS011;40438;52.992;18.604;2022-08-04T08:33:44;11.98;;;9.45;;
54539;SDS011;40438;52.992;18.604;2022-08-04T08:36:12;10.57;;;9.48;;
54539;SDS011;40438;52.992;18.604;2022-08-04T08:38:48;11.05;;;9.18;;
54539;SDS011;40438;52.992;18.604;2022-08-04T08:41:22;11.35;;;9.50;;
54539;SDS011;40438;52.992;18.604;2022-08-04T08:44:17;10.07;;;9.07;;
54539;SDS011;40438;52.992;18.604;2022-08-04T08:47:14;11.38;;;8.93;;
54539;SDS011;40438;52.992;18.604;2022-08-04T08:49:53;17.70;;;10.25;;
54539;SDS011;40438;52.992;18.604;2022-08-04T08:52:46;12.88;;;9.55;;
54539;SDS011;40438;52.992;18.604;2022-08-04T08:55:39;9.70;;;8.18;;
54539;SDS011;40438;52.992;18.604;2022-08-04T08:58:27;9.95;;;8.93;;
54539;SDS011;40438;52.992;18.604;2022-08-04T09:01:06;12.30;;;8.75;;
54539;SDS011;40438;52.992;18.604;2022-08-04T09:06:49;8.10;;;5.93;;
54539;SDS011;40438;52.992;18.604;2022-08-04T09:09:39;8.00;;;6.18;;
54539;SDS011;40438;52.992;18.604;2022-08-04T09:12:13;8.60;;;6.85;;
54539;SDS011;40438;52.992;18.604;2022-08-04T09:14:49;7.60;;;6.90;;
54539;SDS011;40438;52.992;18.604;2022-08-04T09:19:49;8.27;;;5.35;;
54539;SDS011;40438;52.992;18.604;2022-08-04T09:22:21;6.38;;;5.68;;
54539;SDS011;40438;52.992;18.604;2022-08-04T09:24:56;7.57;;;6.10;;
54539;SDS011;40438;52.992;18.604;2022-08-04T09:27:29;6.13;;;5.53;;
54539;SDS011;40438;52.992;18.604;2022-08-04T09:30:03;7.95;;;5.97;;
54539;SDS011;40438;52.992;18.604;2022-08-04T09:32:33;7.75;;;6.25;;
54539;SDS011;40438;52.992;18.604;2022-08-04T09:35:09;9.02;;;7.07;;
54539;SDS011;40438;52.992;18.604;2022-08-04T09:37:59;7.63;;;6.80;;
54539;SDS011;40438;52.992;18.604;2022-08-04T09:40:31;8.20;;;6.10;;
54539;SDS011;40438;52.992;18.604;2022-08-04T09:43:04;6.72;;;5.32;;
54539;SDS011;40438;52.992;18.604;2022-08-04T09:45:44;6.40;;;5.68;;
54539;SDS011;40438;52.992;18.604;2022-08-04T09:48:18;7.35;;;6.00;;
54539;SDS011;40438;52.992;18.604;2022-08-04T09:50:53;11.88;;;6.30;;
54539;SDS011;40438;52.992;18.604;2022-08-04T09:53:28;7.07;;;6.47;;
54539;SDS011;40438;52.992;18.604;2022-08-04T09:56:03;6.57;;;5.97;;
54539;SDS011;40438;52.992;18.604;2022-08-04T09:58:43;6.78;;;6.13;;
54539;SDS011;40438;52.992;18.604;2022-08-04T10:03:47;6.70;;;6.03;;
54539;SDS011;40438;52.992;18.604;2022-08-04T10:06:21;8.20;;;5.53;;
54539;SDS011;40438;52.992;18.604;2022-08-04T10:09:26;6.45;;;5.85;;
54539;SDS011;40438;52.992;18.604;2022-08-04T10:12:07;9.02;;;5.82;;
54539;SDS011;40438;52.992;18.604;2022-08-04T10:14:47;7.40;;;5.60;;
54539;SDS011;40438;52.992;18.604;2022-08-04T10:17:30;6.70;;;5.93;;
54539;SDS011;40438;52.992;18.604;2022-08-04T10:20:07;6.10;;;5.50;;
54539;SDS011;40438;52.992;18.604;2022-08-04T10:22:40;6.70;;;6.10;;
54539;SDS011;40438;52.992;18.604;2022-08-04T10:25:19;7.25;;;5.97;;
54539;SDS011;40438;52.992;18.604;2022-08-04T10:27:56;6.97;;;6.28;;
54539;SDS011;40438;52.992;18.604;2022-08-04T10:30:24;7.82;;;6.47;;
54539;SDS011;40438;52.992;18.604;2022-08-04T10:32:54;6.45;;;5.82;;
54539;SDS011;40438;52.992;18.604;2022-08-04T10:35:27;8.40;;;5.95;;
54539;SDS011;40438;52.992;18.604;2022-08-04T10:38:02;6.20;;;5.65;;
54539;SDS011;40438;52.992;18.604;2022-08-04T10:40:38;7.72;;;5.63;;
54539;SDS011;40438;52.992;18.604;2022-08-04T10:43:08;9.40;;;5.75;;
54539;SDS011;40438;52.992;18.604;2022-08-04T10:45:43;6.68;;;6.03;;
54539;SDS011;40438;52.992;18.604;2022-08-04T10:48:17;9.10;;;6.05;;
54539;SDS011;40438;52.992;18.604;2022-08-04T10:50:52;6.88;;;6.13;;
54539;SDS011;40438;52.992;18.604;2022-08-04T10:53:25;7.97;;;6.43;;
54539;SDS011;40438;52.992;18.604;2022-08-04T10:55:56;9.30;;;5.88;;
54539;SDS011;40438;52.992;18.604;2022-08-04T10:58:35;7.18;;;5.57;;
54539;SDS011;40438;52.992;18.604;2022-08-04T11:01:08;6.72;;;6.03;;
54539;SDS011;40438;52.992;18.604;2022-08-04T11:03:42;8.23;;;6.40;;
54539;SDS011;40438;52.992;18.604;2022-08-04T11:06:13;9.23;;;6.47;;
54539;SDS011;40438;52.992;18.604;2022-08-04T11:08:40;8.43;;;6.32;;
54539;SDS011;40438;52.992;18.604;2022-08-04T11:11:11;7.28;;;6.57;;
54539;SDS011;40438;52.992;18.604;2022-08-04T11:13:39;10.30;;;6.15;;
54539;SDS011;40438;52.992;18.604;2022-08-04T11:16:12;8.27;;;6.45;;
54539;SDS011;40438;52.992;18.604;2022-08-04T11:18:45;9.32;;;6.00;;
54539;SDS011;40438;52.992;18.604;2022-08-04T11:21:18;7.70;;;5.70;;
54539;SDS011;40438;52.992;18.604;2022-08-04T11:23:46;5.97;;;5.47;;
54539;SDS011;40438;52.992;18.604;2022-08-04T11:26:21;6.55;;;5.82;;
54539;SDS011;40438;52.992;18.604;2022-08-04T11:28:56;5.90;;;5.30;;
54539;SDS011;40438;52.992;18.604;2022-08-04T11:31:26;5.88;;;5.38;;
54539;SDS011;40438;52.992;18.604;2022-08-04T11:33:59;7.50;;;5.65;;
54539;SDS011;40438;52.992;18.604;2022-08-04T11:36:31;6.78;;;5.50;;
54539;SDS011;40438;52.992;18.604;2022-08-04T11:39:02;5.93;;;5.40;;
54539;SDS011;40438;52.992;18.604;2022-08-04T11:41:46;6.55;;;5.95;;
54539;SDS011;40438;52.992;18.604;2022-08-04T11:44:17;6.07;;;5.50;;
54539;SDS011;40438;52.992;18.604;2022-08-04T11:46:49;7.30;;;5.43;;
54539;SDS011;40438;52.992;18.604;2022-08-04T11:49:23;8.80;;;5.45;;
54539;SDS011;40438;52.992;18.604;2022-08-04T11:51:53;7.45;;;5.70;;
54539;SDS011;40438;52.992;18.604;2022-08-04T11:54:22;7.65;;;5.70;;
54539;SDS011;40438;52.992;18.604;2022-08-04T11:56:48;6.13;;;5.60;;
54539;SDS011;40438;52.992;18.604;2022-08-04T11:59:14;10.45;;;5.20;;
54539;SDS011;40438;52.992;18.604;2022-08-04T12:01:46;6.32;;;5.72;;
54539;SDS011;40438;52.992;18.604;2022-08-04T12:04:27;5.65;;;5.15;;
54539;SDS011;40438;52.992;18.604;2022-08-04T12:07:13;5.60;;;5.03;;
54539;SDS011;40438;52.992;18.604;2022-08-04T12:09:46;7.45;;;5.57;;
54539;SDS011;40438;52.992;18.604;2022-08-04T12:12:22;6.68;;;5.25;;
54539;SDS011;40438;52.992;18.604;2022-08-04T12:14:55;5.78;;;5.28;;
54539;SDS011;40438;52.992;18.604;2022-08-04T12:17:30;6.25;;;5.20;;
54539;SDS011;40438;52.992;18.604;2022-08-04T12:20:04;6.80;;;5.07;;
54539;SDS011;40438;52.992;18.604;2022-08-04T12:22:33;5.50;;;5.10;;
54539;SDS011;40438;52.992;18.604;2022-08-04T12:25:02;8.00;;;4.90;;
54539;SDS011;40438;52.992;18.604;2022-08-04T12:27:32;5.78;;;5.05;;
54539;SDS011;40438;52.992;18.604;2022-08-04T12:30:02;5.93;;;5.38;;
54539;SDS011;40438;52.992;18.604;2022-08-04T12:32:31;8.63;;;5.57;;
54539;SDS011;40438;52.992;18.604;2022-08-04T12:35:07;6.00;;;5.50;;
54539;SDS011;40438;52.992;18.604;2022-08-04T12:37:42;6.25;;;5.28;;
54539;SDS011;40438;52.992;18.604;2022-08-04T12:40:13;10.98;;;5.00;;
54539;SDS011;40438;52.992;18.604;2022-08-04T12:42:44;5.30;;;4.80;;
54539;SDS011;40438;52.992;18.604;2022-08-04T12:45:17;5.65;;;5.18;;
54539;SDS011;40438;52.992;18.604;2022-08-04T12:47:46;6.35;;;5.72;;
54539;SDS011;40438;52.992;18.604;2022-08-04T12:50:16;6.13;;;5.50;;
54539;SDS011;40438;52.992;18.604;2022-08-04T12:52:45;6.00;;;5.45;;
54539;SDS011;40438;52.992;18.604;2022-08-04T12:55:12;7.43;;;5.40;;
54539;SDS011;40438;52.992;18.604;2022-08-04T12:57:39;5.68;;;5.05;;
54539;SDS011;40438;52.992;18.604;2022-08-04T13:00:07;5.78;;;5.28;;
54539;SDS011;40438;52.992;18.604;2022-08-04T13:02:35;6.90;;;5.20;;
54539;SDS011;40438;52.992;18.604;2022-08-04T13:05:04;8.90;;;6.30;;
54539;SDS011;40438;52.992;18.604;2022-08-04T13:07:35;6.20;;;5.45;;
54539;SDS011;40438;52.992;18.604;2022-08-04T13:10:05;6.38;;;5.78;;
54539;SDS011;40438;52.992;18.604;2022-08-04T13:12:36;8.32;;;6.13;;
54539;SDS011;40438;52.992;18.604;2022-08-04T13:15:05;6.88;;;6.05;;
54539;SDS011;40438;52.992;18.604;2022-08-04T13:17:41;6.25;;;5.65;;
54539;SDS011;40438;52.992;18.604;2022-08-04T13:20:19;6.55;;;5.80;;
54539;SDS011;40438;52.992;18.604;2022-08-04T13:22:51;10.52;;;6.15;;
54539;SDS011;40438;52.992;18.604;2022-08-04T13:25:25;7.80;;;6.07;;
54539;SDS011;40438;52.992;18.604;2022-08-04T13:27:53;6.75;;;6.15;;
54539;SDS011;40438;52.992;18.604;2022-08-04T13:30:19;6.30;;;5.50;;
54539;SDS011;40438;52.992;18.604;2022-08-04T13:32:45;5.90;;;5.40;;
54539;SDS011;40438;52.992;18.604;2022-08-04T13:35:16;6.50;;;5.90;;
54539;SDS011;40438;52.992;18.604;2022-08-04T13:37:42;6.90;;;6.10;;
54539;SDS011;40438;52.992;18.604;2022-08-04T13:40:10;6.00;;;5.43;;
54539;SDS011;40438;52.992;18.604;2022-08-04T13:42:38;11.25;;;6.00;;
54539;SDS011;40438;52.992;18.604;2022-08-04T13:45:10;6.70;;;6.10;;
54539;SDS011;40438;52.992;18.604;2022-08-04T13:47:38;7.00;;;5.68;;
54539;SDS011;40438;52.992;18.604;2022-08-04T13:50:05;6.00;;;5.38;;
54539;SDS011;40438;52.992;18.604;2022-08-04T13:52:38;6.60;;;5.45;;
54539;SDS011;40438;52.992;18.604;2022-08-04T13:55:04;6.43;;;5.82;;
54539;SDS011;40438;52.992;18.604;2022-08-04T13:57:34;6.57;;;5.45;;
54539;SDS011;40438;52.992;18.604;2022-08-04T14:00:08;6.07;;;5.57;;
54539;SDS011;40438;52.992;18.604;2022-08-04T14:02:38;6.32;;;5.57;;
54539;SDS011;40438;52.992;18.604;2022-08-04T14:05:08;6.50;;;5.53;;
54539;SDS011;40438;52.992;18.604;2022-08-04T14:07:40;6.25;;;5.65;;
54539;SDS011;40438;52.992;18.604;2022-08-04T14:10:09;5.65;;;5.10;;
54539;SDS011;40438;52.992;18.604;2022-08-04T14:12:43;11.25;;;6.57;;
54539;SDS011;40438;52.992;18.604;2022-08-04T14:15:11;6.10;;;5.60;;
54539;SDS011;40438;52.992;18.604;2022-08-04T14:17:55;8.30;;;6.05;;
54539;SDS011;40438;52.992;18.604;2022-08-04T14:20:44;6.03;;;5.50;;
54539;SDS011;40438;52.992;18.604;2022-08-04T14:25:48;6.30;;;5.70;;
54539;SDS011;40438;52.992;18.604;2022-08-04T14:28:25;10.55;;;5.88;;
54539;SDS011;40438;52.992;18.604;2022-08-04T14:30:51;6.43;;;5.90;;
54539;SDS011;40438;52.992;18.604;2022-08-04T14:33:35;7.28;;;5.57;;
54539;SDS011;40438;52.992;18.604;2022-08-04T14:36:02;6.85;;;6.20;;
54539;SDS011;40438;52.992;18.604;2022-08-04T14:38:40;5.85;;;5.25;;
54539;SDS011;40438;52.992;18.604;2022-08-04T14:41:07;6.78;;;5.38;;
54539;SDS011;40438;52.992;18.604;2022-08-04T14:43:41;6.25;;;5.57;;
54539;SDS011;40438;52.992;18.604;2022-08-04T14:46:08;7.35;;;5.90;;
54539;SDS011;40438;52.992;18.604;2022-08-04T14:48:35;6.80;;;5.70;;
54539;SDS011;40438;52.992;18.604;2022-08-04T14:51:01;8.60;;;5.78;;
54539;SDS011;40438;52.992;18.604;2022-08-04T14:53:26;7.57;;;5.80;;
54539;SDS011;40438;52.992;18.604;2022-08-04T14:55:53;6.50;;;5.90;;
54539;SDS011;40438;52.992;18.604;2022-08-04T14:58:22;6.72;;;6.18;;
54539;SDS011;40438;52.992;18.604;2022-08-04T15:00:51;7.38;;;6.10;;
54539;SDS011;40438;52.992;18.604;2022-08-04T15:03:19;8.13;;;6.20;;
54539;SDS011;40438;52.992;18.604;2022-08-04T15:05:45;8.07;;;5.97;;
54539;SDS011;40438;52.992;18.604;2022-08-04T15:08:11;11.60;;;6.07;;
54539;SDS011;40438;52.992;18.604;2022-08-04T15:10:37;6.45;;;5.82;;
54539;SDS011;40438;52.992;18.604;2022-08-04T15:13:05;6.82;;;6.22;;
54539;SDS011;40438;52.992;18.604;2022-08-04T15:15:31;7.43;;;6.72;;
54539;SDS011;40438;52.992;18.604;2022-08-04T15:17:58;8.05;;;6.28;;
54539;SDS011;40438;52.992;18.604;2022-08-04T15:20:25;6.75;;;6.15;;
54539;SDS011;40438;52.992;18.604;2022-08-04T15:22:50;7.38;;;6.68;;
54539;SDS011;40438;52.992;18.604;2022-08-04T15:25:16;7.90;;;6.65;;
54539;SDS011;40438;52.992;18.604;2022-08-04T15:27:44;7.95;;;6.65;;
54539;SDS011;40438;52.992;18.604;2022-08-04T15:30:13;7.63;;;6.70;;
54539;SDS011;40438;52.992;18.604;2022-08-04T15:32:42;8.23;;;6.55;;
54539;SDS011;40438;52.992;18.604;2022-08-04T15:35:16;7.80;;;7.20;;
54539;SDS011;40438;52.992;18.604;2022-08-04T15:37:45;7.78;;;7.03;;
54539;SDS011;40438;52.992;18.604;2022-08-04T15:40:21;11.40;;;6.90;;
54539;SDS011;40438;52.992;18.604;2022-08-04T15:42:59;10.20;;;7.32;;
54539;SDS011;40438;52.992;18.604;2022-08-04T15:45:31;7.38;;;6.80;;
54539;SDS011;40438;52.992;18.604;2022-08-04T15:51:04;7.55;;;6.85;;
54539;SDS011;40438;52.992;18.604;2022-08-04T15:53:32;7.38;;;6.68;;